Time;durP1;ratioP1;P1;durP2;ratioP2;P2;SDS_P1;SDS_P2;PMS_P1;PMS_P2;Temp;Humidity;BMP_temperature;BMP_pressure;BME280_temperature;BME280_humidity;BME280_pressure;Samples;Min_cycle;Max_cycle;Signal;HPM_P1;HPM_P2
2022/08/05 00:01:35;;;;;;;16.02;13.20;;;18.40;99.90;;;19.24;100.00;99578.88;5065296;27;119431;-78
2022/08/05 00:04:04;;;;;;;17.05;13.68;;;18.40;99.90;;;19.22;100.00;99575.72;5083130;27;119655;-77
2022/08/05 00:06:32;;;;;;;15.80;14.00;;;18.30;99.90;;;19.20;100.00;99572.53;5083411;27;130023;-80
2022/08/05 00:09:03;;;;;;;18.02;14.48;;;18.30;99.90;;;19.18;100.00;99578.41;5083229;27;129161;-79
2022/08/05 00:11:32;;;;;;;15.88;13.10;;;18.30;99.90;;;19.18;100.00;99570.16;5082595;27;122070;-78
2022/08/05 00:14:01;;;;;;;16.00;13.85;;;18.30;99.90;;;19.18;100.00;99569.34;5083014;27;121547;-79
2022/08/05 00:16:30;;;;;;;15.55;13.70;;;18.20;99.90;;;19.17;100.00;99573.28;5083001;27;129845;-79
2022/08/05 00:18:58;;;;;;;16.55;14.70;;;18.10;99.90;;;19.16;100.00;99572.47;5083449;27;130012;-80
2022/08/05 00:21:27;;;;;;;18.05;14.07;;;18.10;99.90;;;19.16;100.00;99577.16;5083470;27;119698;-80
2022/08/05 00:23:55;;;;;;;19.58;14.05;;;18.00;99.90;;;19.13;100.00;99577.91;5083425;27;119796;-80
2022/08/05 00:26:26;;;;;;;20.50;14.30;;;18.00;99.90;;;19.09;100.00;99571.53;5083004;27;129637;-80
2022/08/05 00:28:54;;;;;;;19.58;14.68;;;18.00;99.90;;;19.06;100.00;99577.78;5082762;27;129853;-80
2022/08/05 00:31:23;;;;;;;18.13;14.10;;;17.90;99.90;;;18.94;100.00;99570.53;5083261;27;119768;-80
2022/08/05 00:33:51;;;;;;;21.08;14.85;;;17.80;99.90;;;18.90;100.00;99570.47;5064999;27;119480;-79
2022/08/05 00:36:21;;;;;;;18.17;14.70;;;17.70;99.90;;;18.84;100.00;99567.22;5081394;27;130862;-81
2022/08/05 00:38:49;;;;;;;17.38;14.07;;;17.70;99.90;;;18.80;100.00;99565.53;5083403;27;130151;-80
2022/08/05 00:41:29;;;;;;;20.50;14.40;;;17.60;99.90;;;18.75;100.00;99568.59;5083331;27;119742;-80
2022/08/05 00:43:58;;;;;;;17.40;13.85;;;17.60;99.90;;;18.75;100.00;99565.84;5083227;27;119362;-80
2022/08/05 00:46:27;;;;;;;17.25;14.75;;;17.60;99.90;;;18.72;100.00;99569.31;5064478;27;130380;-79
2022/08/05 00:48:55;;;;;;;19.45;15.27;;;17.50;99.90;;;18.67;100.00;99562.16;5082879;27;129500;-80
2022/08/05 00:51:23;;;;;;;16.65;14.93;;;17.50;99.90;;;18.61;100.00;99564.41;5083265;27;119342;-77
2022/08/05 00:53:52;;;;;;;18.85;15.75;;;17.50;99.90;;;18.58;100.00;99570.63;5068496;27;119083;-79
2022/08/05 00:56:20;;;;;;;17.30;14.10;;;17.50;99.90;;;18.56;100.00;99563.91;5066599;27;129636;-78
2022/08/05 00:58:51;;;;;;;16.70;14.85;;;17.40;99.90;;;18.51;100.00;99564.97;5082578;27;129984;-79
2022/08/05 01:01:19;;;;;;;16.67;14.05;;;17.30;99.90;;;18.46;100.00;99562.53;5082406;27;122041;-78
2022/08/05 01:03:48;;;;;;;20.58;15.10;;;17.30;99.90;;;18.39;100.00;99567.91;5067688;27;121917;-78
2022/08/05 01:06:16;;;;;;;18.00;14.35;;;17.20;99.90;;;18.30;100.00;99560.66;5082591;27;130522;-81
2022/08/05 01:08:45;;;;;;;17.63;14.95;;;17.20;99.90;;;18.27;100.00;99569.63;5082292;27;129459;-79
2022/08/05 01:11:19;;;;;;;17.60;15.25;;;17.10;99.90;;;18.24;100.00;99569.56;5067377;27;119224;-79
2022/08/05 01:14:03;;;;;;;18.58;15.25;;;17.10;99.90;;;18.17;100.00;99566.66;5082807;27;119998;-77
2022/08/05 01:16:38;;;;;;;21.10;15.07;;;17.00;99.90;;;18.16;100.00;99559.59;5082324;27;130308;-78
2022/08/05 01:19:23;;;;;;;18.90;14.90;;;17.00;99.90;;;18.11;100.00;99561.47;5083479;27;129921;-78
2022/08/05 01:22:11;;;;;;;21.90;15.48;;;17.00;99.90;;;18.10;100.00;99561.81;5068225;27;118887;-77
2022/08/05 01:25:05;;;;;;;19.25;15.50;;;17.00;99.90;;;18.08;100.00;99564.94;5083037;27;119380;-79
2022/08/05 01:28:09;;;;;;;19.02;15.73;;;16.90;99.90;;;18.04;100.00;99568.75;5081380;27;130237;-79
2022/08/05 01:30:47;;;;;;;23.48;15.85;;;17.00;99.90;;;18.05;100.00;99554.66;5082724;27;129834;-77
2022/08/05 01:33:18;;;;;;;19.52;16.90;;;17.00;99.90;;;18.05;100.00;99556.63;5082846;27;120303;-79
2022/08/05 01:35:49;;;;;;;19.13;16.25;;;17.00;99.90;;;18.04;100.00;99566.00;5067757;27;119355;-78
2022/08/05 01:38:20;;;;;;;17.45;15.48;;;16.90;99.90;;;18.02;100.00;99554.59;5068148;27;129760;-79
2022/08/05 01:40:50;;;;;;;20.25;15.65;;;17.00;99.90;;;17.99;100.00;99560.81;5081268;27;130475;-78
2022/08/05 01:43:22;;;;;;;23.65;15.27;;;16.90;99.90;;;17.98;100.00;99553.72;5082640;27;119608;-79
2022/08/05 01:45:52;;;;;;;21.77;16.15;;;16.80;99.90;;;17.93;100.00;99558.34;5067749;27;119921;-79
2022/08/05 01:48:22;;;;;;;22.52;16.70;;;16.80;99.90;;;17.89;100.00;99556.69;5081858;27;130105;-79
2022/08/05 01:50:52;;;;;;;18.70;16.13;;;16.70;99.90;;;17.88;100.00;99561.38;5081941;27;129687;-79
2022/08/05 01:53:22;;;;;;;19.98;15.90;;;16.70;99.90;;;17.80;100.00;99554.13;5065958;27;121429;-80
2022/08/05 01:55:52;;;;;;;20.58;16.25;;;16.60;99.90;;;17.75;100.00;99548.91;5066434;27;120960;-79
2022/08/05 01:58:25;;;;;;;16.27;14.23;;;16.60;99.90;;;17.70;100.00;99560.16;5081805;27;130176;-79
2022/08/05 02:00:57;;;;;;;20.38;16.35;;;16.50;99.90;;;17.67;100.00;99555.38;5081580;27;129764;-79
2022/08/05 02:03:31;;;;;;;21.67;17.08;;;16.50;99.90;;;17.63;100.00;99554.53;5082975;27;119536;-79
2022/08/05 02:06:01;;;;;;;20.20;17.75;;;16.50;99.90;;;17.55;100.00;99554.34;5082546;27;119592;-77
2022/08/05 02:08:30;;;;;;;18.58;16.58;;;16.50;99.90;;;17.43;100.00;99552.50;5066752;27;129291;-81
2022/08/05 02:11:05;;;;;;;20.67;17.35;;;16.50;99.90;;;17.36;100.00;99554.31;5082115;27;129486;-81
2022/08/05 02:13:42;;;;;;;22.45;15.82;;;16.50;99.90;;;17.39;100.00;99556.31;5083551;27;119533;-79
2022/08/05 02:16:20;;;;;;;18.88;16.27;;;16.40;99.90;;;17.41;100.00;99557.56;5084060;27;119254;-80
2022/08/05 02:18:53;;;;;;;20.40;16.27;;;16.40;99.90;;;17.44;100.00;99558.78;5067140;27;129536;-79
2022/08/05 02:21:31;;;;;;;19.23;16.65;;;16.40;99.90;;;17.44;100.00;99556.06;5066158;27;129818;-79
2022/08/05 02:24:06;;;;;;;17.67;15.77;;;16.40;99.90;;;17.43;100.00;99560.72;5081907;27;119548;-78
2022/08/05 02:26:42;;;;;;;17.20;15.00;;;16.40;99.90;;;17.43;100.00;99562.69;5081509;27;119535;-79
2022/08/05 02:29:16;;;;;;;19.73;15.60;;;16.30;99.90;;;17.43;100.00;99563.47;5066073;27;128350;-79
2022/08/05 02:31:47;;;;;;;20.33;16.60;;;16.30;99.90;;;17.40;100.00;99568.88;5081133;27;129089;-78
2022/08/05 02:34:17;;;;;;;19.83;16.88;;;16.40;99.90;;;17.39;100.00;99567.28;5081896;27;119491;-78
2022/08/05 02:36:51;;;;;;;20.85;15.77;;;16.30;99.90;;;17.40;100.00;99563.41;5081896;27;119443;-78
2022/08/05 02:39:23;;;;;;;20.05;16.35;;;16.30;99.90;;;17.38;100.00;99566.50;5081116;27;130785;-78
2022/08/05 02:41:55;;;;;;;20.38;16.10;;;16.40;99.90;;;17.41;100.00;99562.25;5065923;27;129056;-78
2022/08/05 02:44:27;;;;;;;23.90;17.48;;;16.40;99.90;;;17.47;100.00;99571.81;5080105;27;122148;-79
2022/08/05 02:46:57;;;;;;;21.27;17.27;;;16.40;99.90;;;17.52;100.00;99566.03;5066643;27;121653;-79
2022/08/05 02:49:27;;;;;;;21.58;16.67;;;16.50;99.90;;;17.54;100.00;99563.72;5081146;27;130198;-79
2022/08/05 02:51:57;;;;;;;22.08;18.73;;;16.50;99.90;;;17.54;100.00;99563.72;5080305;27;129986;-80
2022/08/05 02:54:27;;;;;;;27.83;22.33;;;16.60;1.00;;;17.53;100.00;99556.66;5081363;27;120431;-80
2022/08/05 02:56:57;;;;;;;33.10;28.58;;;16.60;1.00;;;17.53;100.00;99564.88;5063146;27;120016;-79
2022/08/05 02:59:30;;;;;;;36.75;30.73;;;16.70;1.00;;;17.55;100.00;99565.31;5080903;27;130545;-80
2022/08/05 03:02:00;;;;;;;34.05;29.50;;;16.70;1.00;;;17.61;100.00;99565.84;5081008;27;129259;-80
2022/08/05 03:04:29;;;;;;;35.88;27.30;;;16.80;1.00;;;17.72;100.00;99566.09;5081049;27;119156;-80
2022/08/05 03:06:59;;;;;;;28.38;25.27;;;16.80;1.00;;;17.79;100.00;99568.97;5081063;27;120088;-78
2022/08/05 03:09:27;;;;;;;30.30;25.38;;;16.80;1.00;;;17.86;100.00;99558.16;5079382;27;130619;-80
2022/08/05 03:11:56;;;;;;;28.55;23.55;;;16.90;1.00;;;17.93;100.00;99563.03;5080904;27;130025;-80
2022/08/05 03:14:25;;;;;;;26.17;22.17;;;16.90;1.00;;;18.06;100.00;99561.75;5081184;27;119819;-79
2022/08/05 03:16:55;;;;;;;25.77;21.10;;;17.00;1.00;;;18.31;100.00;99561.47;5081465;27;119472;-79
2022/08/05 03:19:24;;;;;;;23.15;20.25;;;17.10;1.00;;;18.53;100.00;99559.13;5080544;27;129907;-78
2022/08/05 03:21:52;;;;;;;22.00;18.38;;;17.20;1.00;;;18.77;100.00;99561.53;5065412;27;129094;-79
2022/08/05 03:24:21;;;;;;;20.77;17.45;;;17.40;99.90;;;19.02;100.00;99562.00;5081027;27;119664;-79
2022/08/05 03:26:50;;;;;;;20.30;16.75;;;17.60;99.90;;;19.36;100.00;99570.44;5081095;27;120133;-80
2022/08/05 03:29:19;;;;;;;20.13;17.40;;;17.80;99.90;;;19.56;100.00;99562.09;5047975;27;129634;-80
2022/08/05 03:31:48;;;;;;;21.02;16.52;;;17.90;99.90;;;19.64;100.00;99563.78;5065512;27;129413;-81
2022/08/05 03:34:18;;;;;;;18.95;16.88;;;17.90;99.90;;;19.67;100.00;99568.53;5079880;27;121840;-80
2022/08/05 03:36:47;;;;;;;22.08;18.33;;;17.90;99.90;;;19.69;100.00;99563.44;5080659;27;121695;-79
2022/08/05 03:39:16;;;;;;;18.67;16.02;;;18.00;99.90;;;19.80;100.00;99565.59;5065116;27;129958;-80
2022/08/05 03:41:44;;;;;;;20.77;16.85;;;18.10;99.90;;;19.87;100.00;99562.94;5080285;27;129669;-80
2022/08/05 03:44:13;;;;;;;17.88;15.68;;;18.20;99.90;;;19.84;100.00;99566.44;5065652;27;119455;-79
2022/08/05 03:46:41;;;;;;;18.23;15.82;;;18.30;99.90;;;19.83;100.00;99560.13;5062299;27;119432;-78
2022/08/05 03:49:10;;;;;;;19.27;16.42;;;18.40;99.90;;;19.81;100.00;99558.94;5080609;27;129828;-78
2022/08/05 03:51:50;;;;;;;19.95;14.95;;;18.40;99.90;;;19.73;100.00;99564.28;5080701;27;129591;-80
2022/08/05 03:54:31;;;;;;;17.52;14.98;;;18.40;99.90;;;19.74;100.00;99562.31;5081070;27;120408;-77
2022/08/05 03:57:02;;;;;;;17.35;14.50;;;18.50;99.90;;;19.80;100.00;99565.59;5080577;27;119656;-77
2022/08/05 03:59:37;;;;;;;16.88;14.50;;;18.60;99.90;;;19.80;100.00;99565.59;5079061;27;129945;-77
2022/08/05 04:02:07;;;;;;;17.13;15.30;;;18.50;99.90;;;19.75;100.00;99564.72;5048244;27;128979;-81
2022/08/05 04:04:36;;;;;;;16.05;14.15;;;18.60;99.90;;;19.76;100.00;99568.28;5067977;27;119947;-78
2022/08/05 04:07:08;;;;;;;16.33;14.63;;;18.60;99.90;;;19.94;100.00;99571.28;5051618;27;118556;-80
2022/08/05 04:09:37;;;;;;;18.85;13.77;;;18.80;99.90;;;20.17;100.00;99567.66;5083515;27;130101;-77
2022/08/05 04:12:08;;;;;;;17.00;13.55;;;18.90;99.90;;;20.42;100.00;99568.72;5083325;27;130447;-78
2022/08/05 04:14:37;;;;;;;16.80;14.27;;;19.00;99.90;;;20.60;100.00;99573.63;5083819;27;119638;-78
2022/08/05 04:17:08;;;;;;;18.88;14.73;;;19.10;99.90;;;20.66;100.00;99572.16;5084037;27;119518;-79
2022/08/05 04:19:43;;;;;;;16.13;13.63;;;19.20;99.90;;;20.76;100.00;99570.72;5083479;27;129836;-81
2022/08/05 04:22:14;;;;;;;15.82;14.20;;;19.30;99.90;;;20.70;100.00;99573.00;5068022;27;128256;-79
2022/08/05 04:24:45;;;;;;;15.85;13.23;;;19.30;99.90;;;20.80;100.00;99577.03;5067179;27;121689;-79
2022/08/05 04:27:14;;;;;;;15.18;13.27;;;19.50;99.90;;;20.91;100.00;99568.88;5083550;27;121939;-78
2022/08/05 04:29:43;;;;;;;15.07;12.90;;;19.60;99.90;;;21.17;100.00;99565.94;5083542;27;130463;-80
2022/08/05 04:32:12;;;;;;;15.65;12.52;;;19.80;99.90;;;21.30;100.00;99568.41;5064722;27;129527;-80
2022/08/05 04:34:42;;;;;;;16.92;13.25;;;19.90;99.90;;;21.34;100.00;99572.00;5068553;27;119269;-77
2022/08/05 04:37:12;;;;;;;14.38;12.90;;;19.90;99.90;;;21.34;100.00;99577.50;5083037;27;119572;-76
2022/08/05 04:39:40;;;;;;;14.98;13.13;;;19.90;99.90;;;21.49;100.00;99570.97;5067702;27;129362;-77
2022/08/05 04:42:09;;;;;;;13.57;12.18;;;20.10;99.90;;;21.54;100.00;99581.63;5083398;27;129776;-78
2022/08/05 04:44:38;;;;;;;15.20;13.02;;;20.20;99.90;;;21.72;100.00;99583.72;5083235;27;119321;-77
2022/08/05 04:47:07;;;;;;;14.95;12.93;;;20.30;99.90;;;21.92;100.00;99586.22;5083562;27;120005;-76
2022/08/05 04:49:35;;;;;;;14.80;12.93;;;20.50;99.90;;;22.13;99.91;99588.28;5083649;27;129584;-76
2022/08/05 04:52:04;;;;;;;13.95;11.65;;;20.60;99.90;;;22.20;97.83;99577.25;5067536;27;128839;-77
2022/08/05 04:54:34;;;;;;;13.77;12.10;;;20.40;99.90;;;22.36;97.30;99579.72;5046091;27;119237;-77
2022/08/05 04:57:04;;;;;;;14.60;12.13;;;20.60;99.90;;;22.51;96.42;99573.06;5048683;27;103888;-77
2022/08/05 04:59:33;;;;;;;15.13;12.18;;;20.80;99.90;;;22.53;96.35;99573.47;5047130;27;128632;-77
2022/08/05 05:02:02;;;;;;;14.70;11.98;;;20.90;99.90;;;22.58;95.23;99575.06;5047300;27;128459;-77
2022/08/05 05:04:30;;;;;;;14.93;11.25;;;21.00;99.90;;;22.68;94.94;99573.50;5062345;27;119762;-77
2022/08/05 05:06:59;;;;;;;15.23;13.05;;;21.00;99.90;;;22.84;93.26;99573.13;5056333;27;119743;-77
2022/08/05 05:09:28;;;;;;;15.35;11.68;;;21.10;99.90;;;23.00;92.29;99567.22;5059696;27;130346;-77
2022/08/05 05:11:58;;;;;;;17.40;13.65;;;21.20;99.90;;;22.98;91.31;99565.66;5040274;27;129464;-77
2022/08/05 05:14:26;;;;;;;12.77;11.48;;;21.20;99.90;;;23.11;91.93;99573.59;5054940;27;121977;-77
2022/08/05 05:16:54;;;;;;;15.90;14.18;;;21.40;99.90;;;23.40;90.27;99568.81;5061422;27;122016;-81
2022/08/05 05:19:23;;;;;;;14.50;12.18;;;21.60;99.90;;;23.54;88.79;99562.47;5045006;27;128737;-77
2022/08/05 05:21:51;;;;;;;14.00;10.52;;;21.80;99.90;;;23.77;87.81;99570.34;5062053;27;129977;-78
2022/08/05 05:24:20;;;;;;;14.50;10.57;;;22.00;99.90;;;23.83;86.62;99568.75;5056162;27;120507;-78
2022/08/05 05:26:48;;;;;;;13.20;10.13;;;22.20;99.90;;;23.87;86.32;99568.75;5048338;27;120529;-81
2022/08/05 05:29:19;;;;;;;12.48;9.63;;;22.30;99.90;;;23.99;85.34;99570.31;5040591;27;130492;-80
2022/08/05 05:31:48;;;;;;;11.35;9.23;;;22.40;99.90;;;24.14;85.05;99573.84;5040997;27;130794;-79
2022/08/05 05:34:17;;;;;;;12.30;9.75;;;22.50;99.90;;;24.28;84.45;99568.22;5040394;27;119662;-80
2022/08/05 05:36:46;;;;;;;12.13;8.77;;;22.80;99.90;;;24.30;83.15;99568.59;5041016;27;119765;-80
2022/08/05 05:39:14;;;;;;;10.13;8.55;;;22.80;99.90;;;24.49;82.99;99558.22;5039456;27;129818;-81
2022/08/05 05:41:43;;;;;;;9.50;8.30;;;23.00;99.90;;;24.65;79.13;99574.41;5039812;27;129679;-80
2022/08/05 05:44:11;;;;;;;13.82;8.63;;;23.10;99.90;;;24.83;79.61;99568.75;5025425;27;119229;-76
2022/08/05 05:46:41;;;;;;;11.10;7.35;;;23.30;99.90;;;24.91;76.38;99570.28;5026299;27;118857;-78
2022/08/05 05:49:10;;;;;;;11.30;7.28;;;23.50;95.50;;;25.10;75.51;99575.28;5050322;27;130338;-77
2022/08/05 05:51:38;;;;;;;14.40;8.55;;;23.60;94.20;;;25.29;76.04;99575.94;5028926;27;128788;-78
2022/08/05 05:54:07;;;;;;;9.38;7.75;;;23.80;95.70;;;25.29;73.55;99587.03;5054243;27;119860;-81
2022/08/05 05:56:36;;;;;;;9.23;7.57;;;23.90;85.00;;;25.42;73.36;99576.25;5070570;27;119664;-78
2022/08/05 05:59:06;;;;;;;9.40;7.28;;;24.00;79.40;;;25.50;73.36;99579.75;5070652;27;130558;-77
2022/08/05 06:01:36;;;;;;;9.68;6.75;;;24.00;82.30;;;25.55;71.77;99579.28;5067825;27;130202;-78
2022/08/05 06:04:07;;;;;;;8.27;6.75;;;24.10;60.40;;;25.79;71.54;99575.47;5079636;27;122060;-77
2022/08/05 06:06:36;;;;;;;8.80;7.03;;;24.30;63.00;;;26.12;71.07;99575.91;5081170;27;121748;-78
2022/08/05 06:09:05;;;;;;;9.43;7.80;;;24.60;54.50;;;26.26;68.17;99585.31;5065695;27;129027;-77
2022/08/05 06:11:34;;;;;;;8.40;6.40;;;24.60;38.60;;;26.12;67.04;99578.72;5080545;27;130262;-79
2022/08/05 06:14:02;;;;;;;8.68;6.40;;;24.60;26.00;;;26.25;66.57;99578.94;5080418;27;119490;-77
2022/08/05 06:16:31;;;;;;;18.55;7.10;;;24.70;22.10;;;26.13;66.03;99585.03;5066054;27;118550;-80
2022/08/05 06:19:00;;;;;;;13.13;6.85;;;24.60;17.60;;;26.12;66.24;99575.91;5080805;27;129911;-82
2022/08/05 06:21:31;;;;;;;12.05;7.20;;;24.60;15.50;;;26.01;66.78;99573.25;5080529;27;130057;-80
2022/08/05 06:24:00;;;;;;;8.70;6.75;;;24.60;18.10;;;26.25;67.36;99583.72;5079826;27;119779;-82
2022/08/05 06:26:28;;;;;;;10.70;7.18;;;24.80;20.20;;;26.18;66.65;99571.47;5080538;27;118930;-78
2022/08/05 06:28:57;;;;;;;9.18;6.45;;;24.80;15.20;;;26.40;66.26;99576.78;5064179;27;128861;-77
2022/08/05 06:31:26;;;;;;;10.18;7.20;;;25.00;12.10;;;26.42;66.27;99560.44;5080664;27;129072;-77
2022/08/05 06:33:55;;;;;;;9.73;6.38;;;25.00;10.10;;;26.51;65.21;99562.72;5079611;27;119282;-75
2022/08/05 06:36:24;;;;;;;9.70;6.25;;;25.20;4.60;;;26.80;63.01;99567.88;5080844;27;119400;-76
2022/08/05 06:38:53;;;;;;;8.05;6.32;;;25.40;1.00;;;26.94;64.05;99564.09;5048603;27;128790;-80
2022/08/05 06:41:22;;;;;;;10.10;5.95;;;25.50;1.00;;;27.14;59.01;99564.97;5080160;27;129519;-75
2022/08/05 06:43:51;;;;;;;8.77;6.03;;;25.70;1.00;;;27.41;58.85;99555.78;5080324;27;119590;-80
2022/08/05 06:46:19;;;;;;;11.40;6.63;;;25.90;1.00;;;27.53;58.90;99557.94;5065135;27;119171;-76
2022/08/05 06:48:47;;;;;;;9.68;5.85;;;26.00;1.00;;;27.29;58.26;99561.94;5062484;27;131619;-79
2022/08/05 06:51:16;;;;;;;8.98;5.95;;;25.80;1.00;;;27.27;59.74;99557.59;5067383;27;128999;-79
2022/08/05 06:53:44;;;;;;;8.60;6.63;;;25.90;1.00;;;27.49;58.00;99550.84;5057682;27;122493;-78
2022/08/05 06:56:14;;;;;;;8.90;5.80;;;26.10;1.00;;;27.75;57.41;99551.97;5043631;27;122497;-78
2022/08/05 06:58:43;;;;;;;7.45;5.55;;;26.30;1.00;;;27.93;56.07;99560.78;5059499;27;130032;-77
2022/08/05 07:01:11;;;;;;;6.90;5.38;;;26.40;1.00;;;28.04;53.73;99557.03;5063537;27;129371;-74
2022/08/05 07:03:40;;;;;;;7.60;5.88;;;26.50;1.00;;;27.95;55.07;99550.00;5079709;27;119920;-79
2022/08/05 07:06:09;;;;;;;10.52;5.80;;;26.50;1.00;;;27.84;54.37;99557.75;5065332;27;119704;-77
2022/08/05 07:08:38;;;;;;;6.88;5.80;;;26.30;1.00;;;28.06;53.32;99560.16;5080216;27;129899;-78
2022/08/05 07:11:06;;;;;;;9.05;5.53;;;26.50;1.00;;;27.78;54.27;99557.50;5079650;27;130695;-78
2022/08/05 07:19:08;;;;;;;10.27;6.65;;;26.70;1.00;;;28.39;53.76;99560.25;5060016;27;129722;-81
2022/08/05 07:21:37;;;;;;;12.05;6.00;;;26.70;1.00;;;28.58;54.20;99551.09;5064420;27;129689;-76
2022/08/05 07:24:07;;;;;;;13.40;6.68;;;26.90;1.00;;;28.72;53.35;99554.78;5064564;27;118353;-79
2022/08/05 07:26:36;;;;;;;9.38;6.38;;;27.00;1.00;;;28.89;54.95;99548.00;5064743;27;118369;-76
2022/08/05 07:29:06;;;;;;;7.68;5.63;;;27.00;1.00;;;29.00;52.43;99542.94;5061035;27;131147;-79
2022/08/05 07:31:34;;;;;;;9.20;6.13;;;27.20;1.00;;;29.11;53.40;99553.03;5079840;27;130044;-78
2022/08/05 07:34:03;;;;;;;11.32;6.32;;;27.40;1.00;;;29.30;53.64;99552.19;5079952;27;119622;-75
2022/08/05 07:36:33;;;;;;;11.95;7.28;;;27.40;1.00;;;29.44;52.46;99558.63;5080705;27;120029;-77
2022/08/05 07:39:02;;;;;;;8.43;6.70;;;27.50;1.00;;;29.17;51.88;99551.28;5081228;27;129823;-76
2022/08/05 07:41:31;;;;;;;10.88;6.07;;;27.30;1.00;;;29.44;51.29;99553.06;5082914;27;129383;-75
2022/08/05 07:44:00;;;;;;;9.60;6.32;;;27.50;1.00;;;29.16;50.06;99553.31;5066860;27;121111;-78
2022/08/05 07:46:32;;;;;;;10.50;7.22;;;27.50;1.00;;;28.91;49.78;99550.34;5084051;27;122017;-76
2022/08/05 07:49:03;;;;;;;11.85;7.20;;;27.40;1.00;;;28.76;51.35;99553.47;5082936;27;131173;-76
2022/08/05 07:51:36;;;;;;;11.32;7.20;;;27.30;1.00;;;28.63;52.01;99553.38;5082860;27;129493;-82
2022/08/05 07:54:05;;;;;;;10.65;7.30;;;27.30;1.00;;;28.47;52.98;99550.50;5082589;27;119778;-75
2022/08/05 07:56:34;;;;;;;8.60;6.90;;;27.30;1.00;;;28.42;52.69;99543.47;5065330;27;119636;-78
2022/08/05 07:59:02;;;;;;;8.18;6.97;;;27.20;1.00;;;28.99;52.97;99546.94;5067139;27;129563;-75
2022/08/05 08:01:32;;;;;;;9.95;7.82;;;27.60;1.00;;;29.44;53.35;99547.47;5082590;27;129674;-76
2022/08/05 08:04:01;;;;;;;13.02;7.75;;;27.80;1.00;;;29.68;51.39;99540.38;5067430;27;119813;-78
2022/08/05 08:06:31;;;;;;;9.23;7.45;;;27.90;1.00;;;29.76;51.29;99547.38;5080457;27;119528;-78
2022/08/05 08:09:00;;;;;;;11.10;7.00;;;28.10;1.00;;;29.66;51.52;99548.44;5082076;27;129963;-81
2022/08/05 08:11:28;;;;;;;11.05;7.22;;;27.90;1.00;;;29.22;51.46;99539.63;5066517;27;129204;-77
2022/08/05 08:13:57;;;;;;;9.77;7.32;;;27.60;1.00;;;29.32;51.58;99541.34;5082741;27;119629;-76
2022/08/05 08:16:26;;;;;;;9.85;7.53;;;27.80;1.00;;;29.46;52.01;99536.63;5080193;27;119790;-75
2022/08/05 08:18:56;;;;;;;11.02;7.15;;;27.90;1.00;;;29.31;50.99;99534.22;5072078;27;129907;-72
2022/08/05 08:21:25;;;;;;;8.98;7.32;;;27.80;1.00;;;29.26;51.92;99536.75;5058873;27;128753;-74
2022/08/05 08:23:54;;;;;;;12.52;7.65;;;27.80;1.00;;;28.93;52.83;99539.53;5053877;27;118878;-78
2022/08/05 08:26:22;;;;;;;9.65;6.32;;;27.60;1.00;;;29.03;53.08;99535.66;5065619;27;119547;-76
2022/08/05 08:28:51;;;;;;;13.27;6.93;;;27.60;1.00;;;29.19;50.73;99537.69;5083005;27;130358;-80
2022/08/05 08:31:20;;;;;;;9.63;7.72;;;27.80;1.00;;;29.35;49.59;99540.47;5066701;27;128809;-82
2022/08/05 08:33:49;;;;;;;12.23;7.80;;;28.00;1.00;;;29.67;51.55;99538.03;5065389;27;122460;-78
2022/08/05 08:36:19;;;;;;;9.93;7.05;;;28.10;1.00;;;30.10;52.25;99534.81;5061528;27;121460;-77
2022/08/05 08:38:47;;;;;;;8.80;7.25;;;28.40;1.00;;;30.30;49.88;99529.03;5061510;27;132161;-75
2022/08/05 08:41:16;;;;;;;8.95;7.03;;;28.50;1.00;;;30.51;48.41;99537.25;5064654;27;130015;-79
2022/08/05 08:43:47;;;;;;;8.55;7.00;;;28.60;1.00;;;30.25;48.17;99542.81;5080440;27;119711;-77
2022/08/05 08:46:17;;;;;;;9.50;7.45;;;28.60;1.00;;;30.29;47.87;99533.09;5074731;27;119534;-77
2022/08/05 08:48:48;;;;;;;10.30;6.65;;;28.50;1.00;;;30.19;47.78;99533.41;5065218;27;128621;-76
2022/08/05 08:51:20;;;;;;;11.80;6.63;;;28.30;1.00;;;30.48;48.53;99533.34;5048204;27;129338;-76
2022/08/05 08:53:52;;;;;;;9.88;7.25;;;28.60;1.00;;;30.83;48.06;99537.00;5066115;27;118824;-75
2022/08/05 08:56:22;;;;;;;11.15;7.82;;;28.90;1.00;;;31.12;47.53;99522.09;5084826;27;119554;-75
2022/08/05 08:58:51;;;;;;;8.27;6.35;;;29.10;1.00;;;31.25;47.20;99522.06;5080705;27;129985;-76
2022/08/05 09:01:20;;;;;;;7.82;7.03;;;29.10;1.00;;;30.93;46.52;99517.50;5080401;27;130814;-76
2022/08/05 09:03:51;;;;;;;9.30;6.68;;;28.90;1.00;;;31.15;47.13;99518.41;5041406;27;118296;-76
2022/08/05 09:06:22;;;;;;;9.40;6.88;;;29.20;1.00;;;31.26;47.46;99514.41;5061310;27;118999;-78
2022/08/05 09:08:50;;;;;;;9.07;6.80;;;29.20;1.00;;;30.89;46.24;99511.25;5060817;27;130112;-77
2022/08/05 09:11:19;;;;;;;8.98;6.65;;;28.80;1.00;;;30.59;47.15;99507.78;5060965;27;129362;-74
2022/08/05 09:13:49;;;;;;;8.68;6.80;;;28.80;1.00;;;30.40;47.32;99510.41;5060091;27;119715;-74
2022/08/05 09:16:17;;;;;;;8.80;6.57;;;28.80;1.00;;;30.30;48.00;99511.47;5046135;27;119030;-76
2022/08/05 09:18:47;;;;;;;9.05;6.80;;;28.90;1.00;;;30.64;46.54;99513.63;5045629;27;129114;-74
2022/08/05 09:21:15;;;;;;;7.82;6.40;;;29.10;1.00;;;30.77;45.38;99508.00;5062168;27;129005;-77
2022/08/05 09:23:46;;;;;;;9.57;7.72;;;29.10;1.00;;;30.73;46.86;99509.34;5058872;27;122576;-75
2022/08/05 09:26:16;;;;;;;10.07;7.95;;;29.00;1.00;;;30.13;47.59;99501.59;5044728;27;120858;-74
2022/08/05 09:28:48;;;;;;;9.45;7.13;;;28.60;1.00;;;29.91;48.42;99505.03;5028772;27;128554;-77
2022/08/05 09:31:17;;;;;;;9.07;6.80;;;28.30;1.00;;;30.13;48.04;99501.59;5060734;27;130406;-76
2022/08/05 09:33:50;;;;;;;13.63;7.05;;;28.50;1.00;;;30.40;48.21;99504.81;5046072;27;119819;-76
2022/08/05 09:36:19;;;;;;;11.13;7.07;;;28.80;1.00;;;30.33;49.01;99495.81;5060675;27;120395;-75
2022/08/05 09:39:00;;;;;;;9.95;7.32;;;28.70;1.00;;;30.38;47.42;99504.41;5042076;27;130465;-77
2022/08/05 09:41:29;;;;;;;10.20;8.15;;;28.90;1.00;;;29.97;48.45;99499.69;5060522;27;129599;-77
2022/08/05 09:43:58;;;;;;;11.38;7.53;;;28.50;1.00;;;30.31;47.88;99499.06;5059447;27;119610;-77
2022/08/05 09:46:29;;;;;;;8.80;7.38;;;28.80;1.00;;;30.22;47.79;99493.34;5060701;27;120198;-76
2022/08/05 09:48:59;;;;;;;9.00;7.28;;;28.60;1.00;;;30.85;48.64;99493.78;5059264;27;129806;-76
2022/08/05 09:51:36;;;;;;;7.90;6.93;;;29.30;1.00;;;30.92;47.08;99499.16;5063092;27;132026;-75
2022/08/05 09:54:10;;;;;;;9.05;6.95;;;29.40;1.00;;;30.52;46.86;99494.03;5060202;27;119870;-80
2022/08/05 09:56:39;;;;;;;8.27;7.22;;;28.90;1.00;;;30.49;46.90;99489.34;5043839;27;119442;-76
2022/08/05 09:59:10;;;;;;;9.07;7.05;;;28.90;1.00;;;30.52;45.76;99485.63;5059555;27;130078;-75
2022/08/05 10:01:46;;;;;;;13.02;6.78;;;28.90;1.00;;;30.76;44.87;99481.25;5075174;27;129343;-75
2022/08/05 10:04:15;;;;;;;9.77;6.82;;;29.20;1.00;;;30.88;44.45;99476.06;5062824;27;118492;-75
2022/08/05 10:06:55;;;;;;;10.38;6.30;;;29.30;1.00;;;31.23;44.65;99484.50;5080592;27;119900;-74
2022/08/05 10:09:25;;;;;;;10.25;6.70;;;29.60;1.00;;;31.58;43.58;99470.47;5081882;27;129999;-75
2022/08/05 10:11:54;;;;;;;10.55;8.38;;;29.80;1.00;;;31.57;43.79;99464.09;5078692;27;129611;-76
2022/08/05 10:14:25;;;;;;;8.32;6.57;;;29.70;1.00;;;31.22;44.33;99477.34;5078122;27;122034;-76
2022/08/05 10:16:55;;;;;;;9.55;6.53;;;29.40;1.00;;;31.21;45.35;99470.16;5064974;27;121312;-77
2022/08/05 10:19:26;;;;;;;10.02;6.88;;;29.30;1.00;;;31.61;44.27;99475.97;5090056;27;131411;-75
2022/08/05 10:21:54;;;;;;;10.00;6.55;;;29.90;1.00;;;31.85;43.48;99467.88;5069757;27;128611;-75
2022/08/05 10:24:24;;;;;;;8.15;7.10;;;30.10;1.00;;;31.72;42.64;99469.94;5102435;27;119663;-78